<?xml version="1.0" encoding="UTF-8" standalone="no" ?>
<gpx xmlns="http://www.topografix.com/GPX/1/1" xmlns:xsi="http://www.w3.org/2001/XMLSchema-instance" xsi:schemaLocation="http://www.topografix.com/GPX/1/1 http://www.topografix.com/GPX/1/1/gpx.xsd" version="1.1" creator="VisuGPX - https://www.visugpx.com">
  <metadata>
    <name>Circuit VTT n°11 : A la découverte du Chavangeois</name>
    <desc><![CDATA[
]]></desc>
  </metadata>
  <trk>
    <name><![CDATA[Circuit VTT n°11 : A la découverte du Chavangeois]]></name>
    <trkseg>
      <trkpt lat="48.50838" lon="4.57327">
        <ele>136</ele>
        <time>2020-02-17T20:09:15.132Z</time>
      </trkpt>
      <trkpt lat="48.508" lon="4.57278">
        <ele>140</ele>
        <time>2020-02-17T20:09:16.132Z</time>
      </trkpt>
      <trkpt lat="48.5078" lon="4.57231">
        <ele>144</ele>
        <time>2020-02-17T20:09:17.132Z</time>
      </trkpt>
      <trkpt lat="48.50756" lon="4.57168">
        <ele>146</ele>
        <time>2020-02-17T20:09:18.132Z</time>
      </trkpt>
      <trkpt lat="48.50725" lon="4.57079">
        <ele>155</ele>
        <time>2020-02-17T20:09:19.132Z</time>
      </trkpt>
      <trkpt lat="48.5072" lon="4.57034">
        <ele>156</ele>
        <time>2020-02-17T20:09:20.132Z</time>
      </trkpt>
      <trkpt lat="48.50706" lon="4.57013">
        <ele>157</ele>
        <time>2020-02-17T20:09:21.132Z</time>
      </trkpt>
      <trkpt lat="48.50672" lon="4.5698">
        <ele>157</ele>
        <time>2020-02-17T20:09:22.132Z</time>
      </trkpt>
      <trkpt lat="48.50617" lon="4.56957">
        <ele>153</ele>
        <time>2020-02-17T20:09:23.132Z</time>
      </trkpt>
      <trkpt lat="48.50598" lon="4.56736">
        <ele>151</ele>
        <time>2020-02-17T20:09:24.132Z</time>
      </trkpt>
      <trkpt lat="48.50499" lon="4.56759">
        <ele>151</ele>
        <time>2020-02-17T20:09:25.132Z</time>
      </trkpt>
      <trkpt lat="48.50427" lon="4.56783">
        <ele>153</ele>
        <time>2020-02-17T20:09:26.132Z</time>
      </trkpt>
      <trkpt lat="48.50411" lon="4.56801">
        <ele>153</ele>
        <time>2020-02-17T20:09:27.132Z</time>
      </trkpt>
      <trkpt lat="48.50385" lon="4.56844">
        <ele>152</ele>
        <time>2020-02-17T20:09:28.132Z</time>
      </trkpt>
      <trkpt lat="48.50213" lon="4.57033">
        <ele>156</ele>
        <time>2020-02-17T20:09:29.132Z</time>
      </trkpt>
      <trkpt lat="48.50038" lon="4.57149">
        <ele>162</ele>
        <time>2020-02-17T20:09:30.132Z</time>
      </trkpt>
      <trkpt lat="48.5" lon="4.57124">
        <ele>162</ele>
        <time>2020-02-17T20:09:31.132Z</time>
      </trkpt>
      <trkpt lat="48.49827" lon="4.56984">
        <ele>169</ele>
        <time>2020-02-17T20:09:32.132Z</time>
      </trkpt>
      <trkpt lat="48.4969" lon="4.56808">
        <ele>172</ele>
        <time>2020-02-17T20:09:33.132Z</time>
      </trkpt>
      <trkpt lat="48.49593" lon="4.56734">
        <ele>171</ele>
        <time>2020-02-17T20:09:34.132Z</time>
      </trkpt>
      <trkpt lat="48.49538" lon="4.56696">
        <ele>172</ele>
        <time>2020-02-17T20:09:35.132Z</time>
      </trkpt>
      <trkpt lat="48.49487" lon="4.5665">
        <ele>170</ele>
        <time>2020-02-17T20:09:36.132Z</time>
      </trkpt>
      <trkpt lat="48.49358" lon="4.56562">
        <ele>170</ele>
        <time>2020-02-17T20:09:37.132Z</time>
      </trkpt>
      <trkpt lat="48.4938" lon="4.5639">
        <ele>168</ele>
        <time>2020-02-17T20:09:38.132Z</time>
      </trkpt>
      <trkpt lat="48.49187" lon="4.56286">
        <ele>174</ele>
        <time>2020-02-17T20:09:39.132Z</time>
      </trkpt>
      <trkpt lat="48.49049" lon="4.56214">
        <ele>173</ele>
        <time>2020-02-17T20:09:40.132Z</time>
      </trkpt>
      <trkpt lat="48.49033" lon="4.56292">
        <ele>173</ele>
        <time>2020-02-17T20:09:41.132Z</time>
      </trkpt>
      <trkpt lat="48.49026" lon="4.56378">
        <ele>172</ele>
        <time>2020-02-17T20:09:42.132Z</time>
      </trkpt>
      <trkpt lat="48.49017" lon="4.56422">
        <ele>172</ele>
        <time>2020-02-17T20:09:43.132Z</time>
      </trkpt>
      <trkpt lat="48.49017" lon="4.56447">
        <ele>171</ele>
        <time>2020-02-17T20:09:44.132Z</time>
      </trkpt>
      <trkpt lat="48.49035" lon="4.56514">
        <ele>169</ele>
        <time>2020-02-17T20:09:45.132Z</time>
      </trkpt>
      <trkpt lat="48.48946" lon="4.56493">
        <ele>171</ele>
        <time>2020-02-17T20:09:46.132Z</time>
      </trkpt>
      <trkpt lat="48.48948" lon="4.56443">
        <ele>172</ele>
        <time>2020-02-17T20:09:47.132Z</time>
      </trkpt>
      <trkpt lat="48.48933" lon="4.56378">
        <ele>167</ele>
        <time>2020-02-17T20:09:48.132Z</time>
      </trkpt>
      <trkpt lat="48.48893" lon="4.56334">
        <ele>158</ele>
        <time>2020-02-17T20:09:49.132Z</time>
      </trkpt>
      <trkpt lat="48.48823" lon="4.56294">
        <ele>145</ele>
        <time>2020-02-17T20:09:50.132Z</time>
      </trkpt>
      <trkpt lat="48.48793" lon="4.56269">
        <ele>139</ele>
        <time>2020-02-17T20:09:51.132Z</time>
      </trkpt>
      <trkpt lat="48.48743" lon="4.56287">
        <ele>135</ele>
        <time>2020-02-17T20:09:52.132Z</time>
      </trkpt>
      <trkpt lat="48.48722" lon="4.56308">
        <ele>132</ele>
        <time>2020-02-17T20:09:53.132Z</time>
      </trkpt>
      <trkpt lat="48.48717" lon="4.56315">
        <ele>131</ele>
        <time>2020-02-17T20:09:54.132Z</time>
      </trkpt>
      <trkpt lat="48.48633" lon="4.56368">
        <ele>123</ele>
        <time>2020-02-17T20:09:55.132Z</time>
      </trkpt>
      <trkpt lat="48.4873" lon="4.56581">
        <ele>121</ele>
        <time>2020-02-17T20:09:56.132Z</time>
      </trkpt>
      <trkpt lat="48.48696" lon="4.56637">
        <ele>120</ele>
        <time>2020-02-17T20:09:57.132Z</time>
      </trkpt>
      <trkpt lat="48.48691" lon="4.56657">
        <ele>120</ele>
        <time>2020-02-17T20:09:58.132Z</time>
      </trkpt>
      <trkpt lat="48.48496" lon="4.5696">
        <ele>120</ele>
        <time>2020-02-17T20:09:59.132Z</time>
      </trkpt>
      <trkpt lat="48.48351" lon="4.57187">
        <ele>115</ele>
        <time>2020-02-17T20:10:00.132Z</time>
      </trkpt>
      <trkpt lat="48.4834" lon="4.57213">
        <ele>115</ele>
        <time>2020-02-17T20:10:01.132Z</time>
      </trkpt>
      <trkpt lat="48.48314" lon="4.57249">
        <ele>115</ele>
        <time>2020-02-17T20:10:02.132Z</time>
      </trkpt>
      <trkpt lat="48.48304" lon="4.57288">
        <ele>116</ele>
        <time>2020-02-17T20:10:03.132Z</time>
      </trkpt>
      <trkpt lat="48.48279" lon="4.57283">
        <ele>120</ele>
        <time>2020-02-17T20:10:04.132Z</time>
      </trkpt>
      <trkpt lat="48.48177" lon="4.57269">
        <ele>119</ele>
        <time>2020-02-17T20:10:05.132Z</time>
      </trkpt>
      <trkpt lat="48.48128" lon="4.5724">
        <ele>118</ele>
        <time>2020-02-17T20:10:06.132Z</time>
      </trkpt>
      <trkpt lat="48.48047" lon="4.5726">
        <ele>117</ele>
        <time>2020-02-17T20:10:07.132Z</time>
      </trkpt>
      <trkpt lat="48.47927" lon="4.5729">
        <ele>119</ele>
        <time>2020-02-17T20:10:08.132Z</time>
      </trkpt>
      <trkpt lat="48.47852" lon="4.57306">
        <ele>120</ele>
        <time>2020-02-17T20:10:09.132Z</time>
      </trkpt>
      <trkpt lat="48.47852" lon="4.57372">
        <ele>122</ele>
        <time>2020-02-17T20:10:10.132Z</time>
      </trkpt>
      <trkpt lat="48.47874" lon="4.5768">
        <ele>126</ele>
        <time>2020-02-17T20:10:11.132Z</time>
      </trkpt>
      <trkpt lat="48.47897" lon="4.57898">
        <ele>122</ele>
        <time>2020-02-17T20:10:12.132Z</time>
      </trkpt>
      <trkpt lat="48.47887" lon="4.57979">
        <ele>119</ele>
        <time>2020-02-17T20:10:13.132Z</time>
      </trkpt>
      <trkpt lat="48.47861" lon="4.58106">
        <ele>119</ele>
        <time>2020-02-17T20:10:14.132Z</time>
      </trkpt>
      <trkpt lat="48.47798" lon="4.5837">
        <ele>116</ele>
        <time>2020-02-17T20:10:15.132Z</time>
      </trkpt>
      <trkpt lat="48.47771" lon="4.58488">
        <ele>117</ele>
        <time>2020-02-17T20:10:16.132Z</time>
      </trkpt>
      <trkpt lat="48.47751" lon="4.58652">
        <ele>118</ele>
        <time>2020-02-17T20:10:17.132Z</time>
      </trkpt>
      <trkpt lat="48.47745" lon="4.58705">
        <ele>116</ele>
        <time>2020-02-17T20:10:18.132Z</time>
      </trkpt>
      <trkpt lat="48.4773" lon="4.5888">
        <ele>118</ele>
        <time>2020-02-17T20:10:19.132Z</time>
      </trkpt>
      <trkpt lat="48.47705" lon="4.58987">
        <ele>116</ele>
        <time>2020-02-17T20:10:20.132Z</time>
      </trkpt>
      <trkpt lat="48.47732" lon="4.58983">
        <ele>116</ele>
        <time>2020-02-17T20:10:21.132Z</time>
      </trkpt>
      <trkpt lat="48.47754" lon="4.59001">
        <ele>115</ele>
        <time>2020-02-17T20:10:22.132Z</time>
      </trkpt>
      <trkpt lat="48.4776" lon="4.59079">
        <ele>115</ele>
        <time>2020-02-17T20:10:23.132Z</time>
      </trkpt>
      <trkpt lat="48.4778" lon="4.59164">
        <ele>114</ele>
        <time>2020-02-17T20:10:24.132Z</time>
      </trkpt>
      <trkpt lat="48.47815" lon="4.5926">
        <ele>115</ele>
        <time>2020-02-17T20:10:25.132Z</time>
      </trkpt>
      <trkpt lat="48.47867" lon="4.59374">
        <ele>114</ele>
        <time>2020-02-17T20:10:26.132Z</time>
      </trkpt>
      <trkpt lat="48.47871" lon="4.59413">
        <ele>113</ele>
        <time>2020-02-17T20:10:27.132Z</time>
      </trkpt>
      <trkpt lat="48.47861" lon="4.59572">
        <ele>114</ele>
        <time>2020-02-17T20:10:28.132Z</time>
      </trkpt>
      <trkpt lat="48.47865" lon="4.59608">
        <ele>114</ele>
        <time>2020-02-17T20:10:29.132Z</time>
      </trkpt>
      <trkpt lat="48.47893" lon="4.59703">
        <ele>113</ele>
        <time>2020-02-17T20:10:30.132Z</time>
      </trkpt>
      <trkpt lat="48.47913" lon="4.59769">
        <ele>115</ele>
        <time>2020-02-17T20:10:31.132Z</time>
      </trkpt>
      <trkpt lat="48.47936" lon="4.59863">
        <ele>117</ele>
        <time>2020-02-17T20:10:32.132Z</time>
      </trkpt>
      <trkpt lat="48.47967" lon="4.59984">
        <ele>115</ele>
        <time>2020-02-17T20:10:33.132Z</time>
      </trkpt>
      <trkpt lat="48.48035" lon="4.60207">
        <ele>116</ele>
        <time>2020-02-17T20:10:34.132Z</time>
      </trkpt>
      <trkpt lat="48.4807" lon="4.60318">
        <ele>117</ele>
        <time>2020-02-17T20:10:35.132Z</time>
      </trkpt>
      <trkpt lat="48.48138" lon="4.60609">
        <ele>116</ele>
        <time>2020-02-17T20:10:36.132Z</time>
      </trkpt>
      <trkpt lat="48.48153" lon="4.60658">
        <ele>117</ele>
        <time>2020-02-17T20:10:37.132Z</time>
      </trkpt>
      <trkpt lat="48.48186" lon="4.607">
        <ele>118</ele>
        <time>2020-02-17T20:10:38.132Z</time>
      </trkpt>
      <trkpt lat="48.48266" lon="4.60792">
        <ele>119</ele>
        <time>2020-02-17T20:10:39.132Z</time>
      </trkpt>
      <trkpt lat="48.48298" lon="4.60857">
        <ele>120</ele>
        <time>2020-02-17T20:10:40.132Z</time>
      </trkpt>
      <trkpt lat="48.48336" lon="4.60966">
        <ele>118</ele>
        <time>2020-02-17T20:10:41.132Z</time>
      </trkpt>
      <trkpt lat="48.48354" lon="4.61009">
        <ele>118</ele>
        <time>2020-02-17T20:10:42.132Z</time>
      </trkpt>
      <trkpt lat="48.48375" lon="4.61055">
        <ele>117</ele>
        <time>2020-02-17T20:10:43.132Z</time>
      </trkpt>
      <trkpt lat="48.48391" lon="4.61078">
        <ele>117</ele>
        <time>2020-02-17T20:10:44.132Z</time>
      </trkpt>
      <trkpt lat="48.48452" lon="4.61146">
        <ele>117</ele>
        <time>2020-02-17T20:10:45.132Z</time>
      </trkpt>
      <trkpt lat="48.48535" lon="4.61204">
        <ele>117</ele>
        <time>2020-02-17T20:10:46.132Z</time>
      </trkpt>
      <trkpt lat="48.48579" lon="4.61248">
        <ele>119</ele>
        <time>2020-02-17T20:10:47.132Z</time>
      </trkpt>
      <trkpt lat="48.48722" lon="4.61375">
        <ele>121</ele>
        <time>2020-02-17T20:10:48.132Z</time>
      </trkpt>
      <trkpt lat="48.48812" lon="4.61458">
        <ele>118</ele>
        <time>2020-02-17T20:10:49.132Z</time>
      </trkpt>
      <trkpt lat="48.48844" lon="4.61483">
        <ele>118</ele>
        <time>2020-02-17T20:10:50.132Z</time>
      </trkpt>
      <trkpt lat="48.48885" lon="4.61485">
        <ele>117</ele>
        <time>2020-02-17T20:10:51.132Z</time>
      </trkpt>
      <trkpt lat="48.48913" lon="4.61474">
        <ele>117</ele>
        <time>2020-02-17T20:10:52.132Z</time>
      </trkpt>
      <trkpt lat="48.4894" lon="4.61457">
        <ele>117</ele>
        <time>2020-02-17T20:10:53.132Z</time>
      </trkpt>
      <trkpt lat="48.48983" lon="4.61393">
        <ele>117</ele>
        <time>2020-02-17T20:10:54.132Z</time>
      </trkpt>
      <trkpt lat="48.49008" lon="4.61347">
        <ele>117</ele>
        <time>2020-02-17T20:10:55.132Z</time>
      </trkpt>
      <trkpt lat="48.49058" lon="4.61268">
        <ele>115</ele>
        <time>2020-02-17T20:10:56.132Z</time>
      </trkpt>
      <trkpt lat="48.49115" lon="4.61207">
        <ele>114</ele>
        <time>2020-02-17T20:10:57.132Z</time>
      </trkpt>
      <trkpt lat="48.49178" lon="4.61151">
        <ele>113</ele>
        <time>2020-02-17T20:10:58.132Z</time>
      </trkpt>
      <trkpt lat="48.49211" lon="4.61081">
        <ele>115</ele>
        <time>2020-02-17T20:10:59.132Z</time>
      </trkpt>
      <trkpt lat="48.49261" lon="4.6097">
        <ele>117</ele>
        <time>2020-02-17T20:11:00.132Z</time>
      </trkpt>
      <trkpt lat="48.49287" lon="4.60931">
        <ele>117</ele>
        <time>2020-02-17T20:11:01.132Z</time>
      </trkpt>
      <trkpt lat="48.49319" lon="4.60907">
        <ele>118</ele>
        <time>2020-02-17T20:11:02.132Z</time>
      </trkpt>
      <trkpt lat="48.49421" lon="4.60861">
        <ele>118</ele>
        <time>2020-02-17T20:11:03.132Z</time>
      </trkpt>
      <trkpt lat="48.49463" lon="4.60817">
        <ele>119</ele>
        <time>2020-02-17T20:11:04.132Z</time>
      </trkpt>
      <trkpt lat="48.49534" lon="4.6075">
        <ele>119</ele>
        <time>2020-02-17T20:11:05.132Z</time>
      </trkpt>
      <trkpt lat="48.49602" lon="4.60684">
        <ele>119</ele>
        <time>2020-02-17T20:11:06.132Z</time>
      </trkpt>
      <trkpt lat="48.49629" lon="4.60672">
        <ele>118</ele>
        <time>2020-02-17T20:11:07.132Z</time>
      </trkpt>
      <trkpt lat="48.49697" lon="4.60661">
        <ele>120</ele>
        <time>2020-02-17T20:11:08.132Z</time>
      </trkpt>
      <trkpt lat="48.49756" lon="4.60625">
        <ele>122</ele>
        <time>2020-02-17T20:11:09.132Z</time>
      </trkpt>
      <trkpt lat="48.49779" lon="4.60612">
        <ele>122</ele>
        <time>2020-02-17T20:11:10.132Z</time>
      </trkpt>
      <trkpt lat="48.49827" lon="4.60548">
        <ele>121</ele>
        <time>2020-02-17T20:11:11.132Z</time>
      </trkpt>
      <trkpt lat="48.4986" lon="4.60524">
        <ele>122</ele>
        <time>2020-02-17T20:11:12.132Z</time>
      </trkpt>
      <trkpt lat="48.49931" lon="4.60482">
        <ele>121</ele>
        <time>2020-02-17T20:11:13.132Z</time>
      </trkpt>
      <trkpt lat="48.49977" lon="4.60457">
        <ele>121</ele>
        <time>2020-02-17T20:11:14.132Z</time>
      </trkpt>
      <trkpt lat="48.50025" lon="4.60437">
        <ele>121</ele>
        <time>2020-02-17T20:11:15.132Z</time>
      </trkpt>
      <trkpt lat="48.50052" lon="4.60404">
        <ele>122</ele>
        <time>2020-02-17T20:11:16.132Z</time>
      </trkpt>
      <trkpt lat="48.5008" lon="4.60361">
        <ele>122</ele>
        <time>2020-02-17T20:11:17.132Z</time>
      </trkpt>
      <trkpt lat="48.50107" lon="4.60341">
        <ele>121</ele>
        <time>2020-02-17T20:11:18.132Z</time>
      </trkpt>
      <trkpt lat="48.50137" lon="4.60345">
        <ele>121</ele>
        <time>2020-02-17T20:11:19.132Z</time>
      </trkpt>
      <trkpt lat="48.50171" lon="4.60365">
        <ele>120</ele>
        <time>2020-02-17T20:11:20.132Z</time>
      </trkpt>
      <trkpt lat="48.50225" lon="4.6041">
        <ele>121</ele>
        <time>2020-02-17T20:11:21.132Z</time>
      </trkpt>
      <trkpt lat="48.50242" lon="4.60429">
        <ele>122</ele>
        <time>2020-02-17T20:11:22.132Z</time>
      </trkpt>
      <trkpt lat="48.50275" lon="4.6048">
        <ele>122</ele>
        <time>2020-02-17T20:11:23.132Z</time>
      </trkpt>
      <trkpt lat="48.50327" lon="4.60514">
        <ele>122</ele>
        <time>2020-02-17T20:11:24.132Z</time>
      </trkpt>
      <trkpt lat="48.50339" lon="4.60523">
        <ele>123</ele>
        <time>2020-02-17T20:11:25.132Z</time>
      </trkpt>
      <trkpt lat="48.50373" lon="4.60572">
        <ele>125</ele>
        <time>2020-02-17T20:11:26.132Z</time>
      </trkpt>
      <trkpt lat="48.50527" lon="4.6057">
        <ele>123</ele>
        <time>2020-02-17T20:11:27.132Z</time>
      </trkpt>
      <trkpt lat="48.50529" lon="4.60587">
        <ele>123</ele>
        <time>2020-02-17T20:11:28.132Z</time>
      </trkpt>
      <trkpt lat="48.50529" lon="4.60699">
        <ele>122</ele>
        <time>2020-02-17T20:11:29.132Z</time>
      </trkpt>
      <trkpt lat="48.50599" lon="4.60682">
        <ele>122</ele>
        <time>2020-02-17T20:11:30.132Z</time>
      </trkpt>
      <trkpt lat="48.50674" lon="4.60675">
        <ele>123</ele>
        <time>2020-02-17T20:11:31.132Z</time>
      </trkpt>
      <trkpt lat="48.50732" lon="4.60676">
        <ele>124</ele>
        <time>2020-02-17T20:11:32.132Z</time>
      </trkpt>
      <trkpt lat="48.50764" lon="4.60704">
        <ele>124</ele>
        <time>2020-02-17T20:11:33.132Z</time>
      </trkpt>
      <trkpt lat="48.5083" lon="4.60765">
        <ele>123</ele>
        <time>2020-02-17T20:11:34.132Z</time>
      </trkpt>
      <trkpt lat="48.50866" lon="4.60788">
        <ele>127</ele>
        <time>2020-02-17T20:11:35.132Z</time>
      </trkpt>
      <trkpt lat="48.50915" lon="4.60804">
        <ele>131</ele>
        <time>2020-02-17T20:11:36.132Z</time>
      </trkpt>
      <trkpt lat="48.50979" lon="4.60869">
        <ele>133</ele>
        <time>2020-02-17T20:11:37.132Z</time>
      </trkpt>
      <trkpt lat="48.51055" lon="4.6093">
        <ele>133</ele>
        <time>2020-02-17T20:11:38.132Z</time>
      </trkpt>
      <trkpt lat="48.51075" lon="4.60939">
        <ele>131</ele>
        <time>2020-02-17T20:11:39.132Z</time>
      </trkpt>
      <trkpt lat="48.51157" lon="4.61017">
        <ele>132</ele>
        <time>2020-02-17T20:11:40.132Z</time>
      </trkpt>
      <trkpt lat="48.51216" lon="4.61079">
        <ele>135</ele>
        <time>2020-02-17T20:11:41.132Z</time>
      </trkpt>
      <trkpt lat="48.51282" lon="4.61161">
        <ele>133</ele>
        <time>2020-02-17T20:11:42.132Z</time>
      </trkpt>
      <trkpt lat="48.51327" lon="4.61221">
        <ele>134</ele>
        <time>2020-02-17T20:11:43.132Z</time>
      </trkpt>
      <trkpt lat="48.51312" lon="4.61237">
        <ele>134</ele>
        <time>2020-02-17T20:11:44.132Z</time>
      </trkpt>
      <trkpt lat="48.51291" lon="4.61274">
        <ele>134</ele>
        <time>2020-02-17T20:11:45.132Z</time>
      </trkpt>
      <trkpt lat="48.51278" lon="4.6132">
        <ele>133</ele>
        <time>2020-02-17T20:11:46.132Z</time>
      </trkpt>
      <trkpt lat="48.51256" lon="4.61409">
        <ele>131</ele>
        <time>2020-02-17T20:11:47.132Z</time>
      </trkpt>
      <trkpt lat="48.51234" lon="4.61505">
        <ele>130</ele>
        <time>2020-02-17T20:11:48.132Z</time>
      </trkpt>
      <trkpt lat="48.51228" lon="4.61586">
        <ele>129</ele>
        <time>2020-02-17T20:11:49.132Z</time>
      </trkpt>
      <trkpt lat="48.51225" lon="4.61634">
        <ele>130</ele>
        <time>2020-02-17T20:11:50.132Z</time>
      </trkpt>
      <trkpt lat="48.51188" lon="4.61694">
        <ele>130</ele>
        <time>2020-02-17T20:11:51.132Z</time>
      </trkpt>
      <trkpt lat="48.51169" lon="4.61725">
        <ele>131</ele>
        <time>2020-02-17T20:11:52.132Z</time>
      </trkpt>
      <trkpt lat="48.51118" lon="4.61792">
        <ele>129</ele>
        <time>2020-02-17T20:11:53.132Z</time>
      </trkpt>
      <trkpt lat="48.51096" lon="4.61825">
        <ele>130</ele>
        <time>2020-02-17T20:11:54.132Z</time>
      </trkpt>
      <trkpt lat="48.51063" lon="4.61879">
        <ele>130</ele>
        <time>2020-02-17T20:11:55.132Z</time>
      </trkpt>
      <trkpt lat="48.51038" lon="4.61943">
        <ele>130</ele>
        <time>2020-02-17T20:11:56.132Z</time>
      </trkpt>
      <trkpt lat="48.51038" lon="4.6198">
        <ele>130</ele>
        <time>2020-02-17T20:11:57.132Z</time>
      </trkpt>
      <trkpt lat="48.51058" lon="4.62113">
        <ele>130</ele>
        <time>2020-02-17T20:11:58.132Z</time>
      </trkpt>
      <trkpt lat="48.51073" lon="4.62212">
        <ele>129</ele>
        <time>2020-02-17T20:11:59.132Z</time>
      </trkpt>
      <trkpt lat="48.5107" lon="4.62264">
        <ele>128</ele>
        <time>2020-02-17T20:12:00.132Z</time>
      </trkpt>
      <trkpt lat="48.51057" lon="4.62343">
        <ele>130</ele>
        <time>2020-02-17T20:12:01.132Z</time>
      </trkpt>
      <trkpt lat="48.51044" lon="4.6244">
        <ele>131</ele>
        <time>2020-02-17T20:12:02.132Z</time>
      </trkpt>
      <trkpt lat="48.51036" lon="4.62526">
        <ele>131</ele>
        <time>2020-02-17T20:12:03.132Z</time>
      </trkpt>
      <trkpt lat="48.51032" lon="4.62599">
        <ele>133</ele>
        <time>2020-02-17T20:12:04.132Z</time>
      </trkpt>
      <trkpt lat="48.51024" lon="4.62644">
        <ele>133</ele>
        <time>2020-02-17T20:12:05.132Z</time>
      </trkpt>
      <trkpt lat="48.51003" lon="4.62714">
        <ele>131</ele>
        <time>2020-02-17T20:12:06.132Z</time>
      </trkpt>
      <trkpt lat="48.50992" lon="4.62787">
        <ele>131</ele>
        <time>2020-02-17T20:12:07.132Z</time>
      </trkpt>
      <trkpt lat="48.50984" lon="4.62849">
        <ele>132</ele>
        <time>2020-02-17T20:12:08.132Z</time>
      </trkpt>
      <trkpt lat="48.50977" lon="4.62882">
        <ele>133</ele>
        <time>2020-02-17T20:12:09.132Z</time>
      </trkpt>
      <trkpt lat="48.50949" lon="4.63071">
        <ele>143</ele>
        <time>2020-02-17T20:12:10.132Z</time>
      </trkpt>
      <trkpt lat="48.50941" lon="4.6315">
        <ele>143</ele>
        <time>2020-02-17T20:12:11.132Z</time>
      </trkpt>
      <trkpt lat="48.50931" lon="4.63263">
        <ele>140</ele>
        <time>2020-02-17T20:12:12.132Z</time>
      </trkpt>
      <trkpt lat="48.5095" lon="4.63289">
        <ele>140</ele>
        <time>2020-02-17T20:12:13.132Z</time>
      </trkpt>
      <trkpt lat="48.51042" lon="4.63411">
        <ele>139</ele>
        <time>2020-02-17T20:12:14.132Z</time>
      </trkpt>
      <trkpt lat="48.51115" lon="4.63509">
        <ele>137</ele>
        <time>2020-02-17T20:12:15.132Z</time>
      </trkpt>
      <trkpt lat="48.51169" lon="4.63596">
        <ele>134</ele>
        <time>2020-02-17T20:12:16.132Z</time>
      </trkpt>
      <trkpt lat="48.51198" lon="4.63652">
        <ele>135</ele>
        <time>2020-02-17T20:12:17.132Z</time>
      </trkpt>
      <trkpt lat="48.51234" lon="4.63752">
        <ele>133</ele>
        <time>2020-02-17T20:12:18.132Z</time>
      </trkpt>
      <trkpt lat="48.51363" lon="4.64097">
        <ele>134</ele>
        <time>2020-02-17T20:12:19.132Z</time>
      </trkpt>
      <trkpt lat="48.51421" lon="4.64252">
        <ele>139</ele>
        <time>2020-02-17T20:12:20.132Z</time>
      </trkpt>
      <trkpt lat="48.51537" lon="4.64564">
        <ele>139</ele>
        <time>2020-02-17T20:12:21.132Z</time>
      </trkpt>
      <trkpt lat="48.51588" lon="4.64703">
        <ele>136</ele>
        <time>2020-02-17T20:12:22.132Z</time>
      </trkpt>
      <trkpt lat="48.51714" lon="4.65042">
        <ele>136</ele>
        <time>2020-02-17T20:12:23.132Z</time>
      </trkpt>
      <trkpt lat="48.51816" lon="4.65305">
        <ele>126</ele>
        <time>2020-02-17T20:12:24.132Z</time>
      </trkpt>
      <trkpt lat="48.51854" lon="4.654">
        <ele>126</ele>
        <time>2020-02-17T20:12:25.132Z</time>
      </trkpt>
      <trkpt lat="48.51877" lon="4.65428">
        <ele>127</ele>
        <time>2020-02-17T20:12:26.132Z</time>
      </trkpt>
      <trkpt lat="48.51924" lon="4.65434">
        <ele>126</ele>
        <time>2020-02-17T20:12:27.132Z</time>
      </trkpt>
      <trkpt lat="48.52092" lon="4.65433">
        <ele>125</ele>
        <time>2020-02-17T20:12:28.132Z</time>
      </trkpt>
      <trkpt lat="48.52126" lon="4.65431">
        <ele>128</ele>
        <time>2020-02-17T20:12:29.132Z</time>
      </trkpt>
      <trkpt lat="48.52228" lon="4.65425">
        <ele>125</ele>
        <time>2020-02-17T20:12:30.132Z</time>
      </trkpt>
      <trkpt lat="48.52256" lon="4.65453">
        <ele>126</ele>
        <time>2020-02-17T20:12:31.132Z</time>
      </trkpt>
      <trkpt lat="48.52285" lon="4.65458">
        <ele>126</ele>
        <time>2020-02-17T20:12:32.132Z</time>
      </trkpt>
      <trkpt lat="48.52322" lon="4.65478">
        <ele>125</ele>
        <time>2020-02-17T20:12:33.132Z</time>
      </trkpt>
      <trkpt lat="48.52436" lon="4.65558">
        <ele>121</ele>
        <time>2020-02-17T20:12:34.132Z</time>
      </trkpt>
      <trkpt lat="48.5252" lon="4.65622">
        <ele>121</ele>
        <time>2020-02-17T20:12:35.132Z</time>
      </trkpt>
      <trkpt lat="48.5255" lon="4.65632">
        <ele>120</ele>
        <time>2020-02-17T20:12:36.132Z</time>
      </trkpt>
      <trkpt lat="48.52589" lon="4.65634">
        <ele>118</ele>
        <time>2020-02-17T20:12:37.132Z</time>
      </trkpt>
      <trkpt lat="48.52642" lon="4.65606">
        <ele>119</ele>
        <time>2020-02-17T20:12:38.132Z</time>
      </trkpt>
      <trkpt lat="48.52647" lon="4.65576">
        <ele>120</ele>
        <time>2020-02-17T20:12:39.132Z</time>
      </trkpt>
      <trkpt lat="48.52641" lon="4.65543">
        <ele>122</ele>
        <time>2020-02-17T20:12:40.132Z</time>
      </trkpt>
      <trkpt lat="48.52625" lon="4.65495">
        <ele>119</ele>
        <time>2020-02-17T20:12:41.132Z</time>
      </trkpt>
      <trkpt lat="48.52623" lon="4.65454">
        <ele>120</ele>
        <time>2020-02-17T20:12:42.132Z</time>
      </trkpt>
      <trkpt lat="48.52639" lon="4.65404">
        <ele>121</ele>
        <time>2020-02-17T20:12:43.132Z</time>
      </trkpt>
      <trkpt lat="48.52671" lon="4.6534">
        <ele>120</ele>
        <time>2020-02-17T20:12:44.132Z</time>
      </trkpt>
      <trkpt lat="48.52714" lon="4.65289">
        <ele>121</ele>
        <time>2020-02-17T20:12:45.132Z</time>
      </trkpt>
      <trkpt lat="48.52777" lon="4.65236">
        <ele>123</ele>
        <time>2020-02-17T20:12:46.132Z</time>
      </trkpt>
      <trkpt lat="48.52831" lon="4.65213">
        <ele>120</ele>
        <time>2020-02-17T20:12:47.132Z</time>
      </trkpt>
      <trkpt lat="48.52871" lon="4.65186">
        <ele>122</ele>
        <time>2020-02-17T20:12:48.132Z</time>
      </trkpt>
      <trkpt lat="48.52898" lon="4.65145">
        <ele>125</ele>
        <time>2020-02-17T20:12:49.132Z</time>
      </trkpt>
      <trkpt lat="48.52909" lon="4.6512">
        <ele>124</ele>
        <time>2020-02-17T20:12:50.132Z</time>
      </trkpt>
      <trkpt lat="48.52941" lon="4.65076">
        <ele>125</ele>
        <time>2020-02-17T20:12:51.132Z</time>
      </trkpt>
      <trkpt lat="48.53" lon="4.65024">
        <ele>124</ele>
        <time>2020-02-17T20:12:52.132Z</time>
      </trkpt>
      <trkpt lat="48.53092" lon="4.6493">
        <ele>134</ele>
        <time>2020-02-17T20:12:53.132Z</time>
      </trkpt>
      <trkpt lat="48.53161" lon="4.64849">
        <ele>130</ele>
        <time>2020-02-17T20:12:54.132Z</time>
      </trkpt>
      <trkpt lat="48.53279" lon="4.64752">
        <ele>129</ele>
        <time>2020-02-17T20:12:55.132Z</time>
      </trkpt>
      <trkpt lat="48.53425" lon="4.64603">
        <ele>131</ele>
        <time>2020-02-17T20:12:56.132Z</time>
      </trkpt>
      <trkpt lat="48.53527" lon="4.64503">
        <ele>130</ele>
        <time>2020-02-17T20:12:57.132Z</time>
      </trkpt>
      <trkpt lat="48.53556" lon="4.64477">
        <ele>130</ele>
        <time>2020-02-17T20:12:58.132Z</time>
      </trkpt>
      <trkpt lat="48.53571" lon="4.64464">
        <ele>130</ele>
        <time>2020-02-17T20:12:59.132Z</time>
      </trkpt>
      <trkpt lat="48.53563" lon="4.64409">
        <ele>130</ele>
        <time>2020-02-17T20:13:00.132Z</time>
      </trkpt>
      <trkpt lat="48.5355" lon="4.64338">
        <ele>130</ele>
        <time>2020-02-17T20:13:01.132Z</time>
      </trkpt>
      <trkpt lat="48.53532" lon="4.64266">
        <ele>131</ele>
        <time>2020-02-17T20:13:02.132Z</time>
      </trkpt>
      <trkpt lat="48.53515" lon="4.64167">
        <ele>131</ele>
        <time>2020-02-17T20:13:03.132Z</time>
      </trkpt>
      <trkpt lat="48.53499" lon="4.6406">
        <ele>131</ele>
        <time>2020-02-17T20:13:04.132Z</time>
      </trkpt>
      <trkpt lat="48.53487" lon="4.63963">
        <ele>131</ele>
        <time>2020-02-17T20:13:05.132Z</time>
      </trkpt>
      <trkpt lat="48.53477" lon="4.63874">
        <ele>131</ele>
        <time>2020-02-17T20:13:06.132Z</time>
      </trkpt>
      <trkpt lat="48.53478" lon="4.63779">
        <ele>131</ele>
        <time>2020-02-17T20:13:07.132Z</time>
      </trkpt>
      <trkpt lat="48.53484" lon="4.63639">
        <ele>133</ele>
        <time>2020-02-17T20:13:08.132Z</time>
      </trkpt>
      <trkpt lat="48.53474" lon="4.63559">
        <ele>133</ele>
        <time>2020-02-17T20:13:09.132Z</time>
      </trkpt>
      <trkpt lat="48.53471" lon="4.63532">
        <ele>134</ele>
        <time>2020-02-17T20:13:10.132Z</time>
      </trkpt>
      <trkpt lat="48.53463" lon="4.63496">
        <ele>135</ele>
        <time>2020-02-17T20:13:11.132Z</time>
      </trkpt>
      <trkpt lat="48.53463" lon="4.63466">
        <ele>135</ele>
        <time>2020-02-17T20:13:12.132Z</time>
      </trkpt>
      <trkpt lat="48.53433" lon="4.63353">
        <ele>135</ele>
        <time>2020-02-17T20:13:13.132Z</time>
      </trkpt>
      <trkpt lat="48.5332" lon="4.62808">
        <ele>130</ele>
        <time>2020-02-17T20:13:14.132Z</time>
      </trkpt>
      <trkpt lat="48.53271" lon="4.62746">
        <ele>129</ele>
        <time>2020-02-17T20:13:15.132Z</time>
      </trkpt>
      <trkpt lat="48.5325" lon="4.62708">
        <ele>130</ele>
        <time>2020-02-17T20:13:16.132Z</time>
      </trkpt>
      <trkpt lat="48.53229" lon="4.62658">
        <ele>131</ele>
        <time>2020-02-17T20:13:17.132Z</time>
      </trkpt>
      <trkpt lat="48.53191" lon="4.62612">
        <ele>129</ele>
        <time>2020-02-17T20:13:18.132Z</time>
      </trkpt>
      <trkpt lat="48.53156" lon="4.62563">
        <ele>130</ele>
        <time>2020-02-17T20:13:19.132Z</time>
      </trkpt>
      <trkpt lat="48.53116" lon="4.62494">
        <ele>130</ele>
        <time>2020-02-17T20:13:20.132Z</time>
      </trkpt>
      <trkpt lat="48.53073" lon="4.62426">
        <ele>131</ele>
        <time>2020-02-17T20:13:21.132Z</time>
      </trkpt>
      <trkpt lat="48.53065" lon="4.62407">
        <ele>131</ele>
        <time>2020-02-17T20:13:22.132Z</time>
      </trkpt>
      <trkpt lat="48.53026" lon="4.62365">
        <ele>131</ele>
        <time>2020-02-17T20:13:23.132Z</time>
      </trkpt>
      <trkpt lat="48.52933" lon="4.62273">
        <ele>129</ele>
        <time>2020-02-17T20:13:24.132Z</time>
      </trkpt>
      <trkpt lat="48.52869" lon="4.62199">
        <ele>126</ele>
        <time>2020-02-17T20:13:25.132Z</time>
      </trkpt>
      <trkpt lat="48.52852" lon="4.62174">
        <ele>125</ele>
        <time>2020-02-17T20:13:26.132Z</time>
      </trkpt>
      <trkpt lat="48.52838" lon="4.6214">
        <ele>124</ele>
        <time>2020-02-17T20:13:27.132Z</time>
      </trkpt>
      <trkpt lat="48.5283" lon="4.62107">
        <ele>124</ele>
        <time>2020-02-17T20:13:28.132Z</time>
      </trkpt>
      <trkpt lat="48.52793" lon="4.61942">
        <ele>125</ele>
        <time>2020-02-17T20:13:29.132Z</time>
      </trkpt>
      <trkpt lat="48.52752" lon="4.6195">
        <ele>123</ele>
        <time>2020-02-17T20:13:30.132Z</time>
      </trkpt>
      <trkpt lat="48.52692" lon="4.61981">
        <ele>123</ele>
        <time>2020-02-17T20:13:31.132Z</time>
      </trkpt>
      <trkpt lat="48.5266" lon="4.62002">
        <ele>123</ele>
        <time>2020-02-17T20:13:32.132Z</time>
      </trkpt>
      <trkpt lat="48.5262" lon="4.61993">
        <ele>123</ele>
        <time>2020-02-17T20:13:33.132Z</time>
      </trkpt>
      <trkpt lat="48.52556" lon="4.61984">
        <ele>123</ele>
        <time>2020-02-17T20:13:34.132Z</time>
      </trkpt>
      <trkpt lat="48.52534" lon="4.61976">
        <ele>123</ele>
        <time>2020-02-17T20:13:35.132Z</time>
      </trkpt>
      <trkpt lat="48.52513" lon="4.61946">
        <ele>124</ele>
        <time>2020-02-17T20:13:36.132Z</time>
      </trkpt>
      <trkpt lat="48.52503" lon="4.61873">
        <ele>125</ele>
        <time>2020-02-17T20:13:37.132Z</time>
      </trkpt>
      <trkpt lat="48.52489" lon="4.6173">
        <ele>125</ele>
        <time>2020-02-17T20:13:38.132Z</time>
      </trkpt>
      <trkpt lat="48.52486" lon="4.61635">
        <ele>126</ele>
        <time>2020-02-17T20:13:39.132Z</time>
      </trkpt>
      <trkpt lat="48.52473" lon="4.61603">
        <ele>126</ele>
        <time>2020-02-17T20:13:40.132Z</time>
      </trkpt>
      <trkpt lat="48.52433" lon="4.61525">
        <ele>128</ele>
        <time>2020-02-17T20:13:41.132Z</time>
      </trkpt>
      <trkpt lat="48.52416" lon="4.6149">
        <ele>128</ele>
        <time>2020-02-17T20:13:42.132Z</time>
      </trkpt>
      <trkpt lat="48.52332" lon="4.61414">
        <ele>132</ele>
        <time>2020-02-17T20:13:43.132Z</time>
      </trkpt>
      <trkpt lat="48.52214" lon="4.61304">
        <ele>134</ele>
        <time>2020-02-17T20:13:44.132Z</time>
      </trkpt>
      <trkpt lat="48.52222" lon="4.61246">
        <ele>133</ele>
        <time>2020-02-17T20:13:45.132Z</time>
      </trkpt>
      <trkpt lat="48.52234" lon="4.61144">
        <ele>132</ele>
        <time>2020-02-17T20:13:46.132Z</time>
      </trkpt>
      <trkpt lat="48.52267" lon="4.60988">
        <ele>133</ele>
        <time>2020-02-17T20:13:47.132Z</time>
      </trkpt>
      <trkpt lat="48.52304" lon="4.60864">
        <ele>132</ele>
        <time>2020-02-17T20:13:48.132Z</time>
      </trkpt>
      <trkpt lat="48.52323" lon="4.60818">
        <ele>131</ele>
        <time>2020-02-17T20:13:49.132Z</time>
      </trkpt>
      <trkpt lat="48.52342" lon="4.60849">
        <ele>131</ele>
        <time>2020-02-17T20:13:50.132Z</time>
      </trkpt>
      <trkpt lat="48.52396" lon="4.60929">
        <ele>132</ele>
        <time>2020-02-17T20:13:51.132Z</time>
      </trkpt>
      <trkpt lat="48.52428" lon="4.60952">
        <ele>133</ele>
        <time>2020-02-17T20:13:52.132Z</time>
      </trkpt>
      <trkpt lat="48.52488" lon="4.60964">
        <ele>131</ele>
        <time>2020-02-17T20:13:53.132Z</time>
      </trkpt>
      <trkpt lat="48.52534" lon="4.60993">
        <ele>132</ele>
        <time>2020-02-17T20:13:54.132Z</time>
      </trkpt>
      <trkpt lat="48.52569" lon="4.61048">
        <ele>132</ele>
        <time>2020-02-17T20:13:55.132Z</time>
      </trkpt>
      <trkpt lat="48.5261" lon="4.6117">
        <ele>130</ele>
        <time>2020-02-17T20:13:56.132Z</time>
      </trkpt>
      <trkpt lat="48.52631" lon="4.61224">
        <ele>130</ele>
        <time>2020-02-17T20:13:57.132Z</time>
      </trkpt>
      <trkpt lat="48.52643" lon="4.61241">
        <ele>130</ele>
        <time>2020-02-17T20:13:58.132Z</time>
      </trkpt>
      <trkpt lat="48.52662" lon="4.61218">
        <ele>129</ele>
        <time>2020-02-17T20:13:59.132Z</time>
      </trkpt>
      <trkpt lat="48.52712" lon="4.61183">
        <ele>128</ele>
        <time>2020-02-17T20:14:00.132Z</time>
      </trkpt>
      <trkpt lat="48.52773" lon="4.61167">
        <ele>127</ele>
        <time>2020-02-17T20:14:01.132Z</time>
      </trkpt>
      <trkpt lat="48.52866" lon="4.6119">
        <ele>124</ele>
        <time>2020-02-17T20:14:02.132Z</time>
      </trkpt>
      <trkpt lat="48.52951" lon="4.61209">
        <ele>123</ele>
        <time>2020-02-17T20:14:03.132Z</time>
      </trkpt>
      <trkpt lat="48.52944" lon="4.61268">
        <ele>122</ele>
        <time>2020-02-17T20:14:04.132Z</time>
      </trkpt>
      <trkpt lat="48.53139" lon="4.61402">
        <ele>126</ele>
        <time>2020-02-17T20:14:05.132Z</time>
      </trkpt>
      <trkpt lat="48.53355" lon="4.61545">
        <ele>123</ele>
        <time>2020-02-17T20:14:06.132Z</time>
      </trkpt>
      <trkpt lat="48.53367" lon="4.6155">
        <ele>123</ele>
        <time>2020-02-17T20:14:07.132Z</time>
      </trkpt>
      <trkpt lat="48.53406" lon="4.61383">
        <ele>123</ele>
        <time>2020-02-17T20:14:08.132Z</time>
      </trkpt>
      <trkpt lat="48.53523" lon="4.61447">
        <ele>126</ele>
        <time>2020-02-17T20:14:09.132Z</time>
      </trkpt>
      <trkpt lat="48.53649" lon="4.61517">
        <ele>130</ele>
        <time>2020-02-17T20:14:10.132Z</time>
      </trkpt>
      <trkpt lat="48.53662" lon="4.61477">
        <ele>130</ele>
        <time>2020-02-17T20:14:11.132Z</time>
      </trkpt>
      <trkpt lat="48.53704" lon="4.61311">
        <ele>132</ele>
        <time>2020-02-17T20:14:12.132Z</time>
      </trkpt>
      <trkpt lat="48.53733" lon="4.61253">
        <ele>131</ele>
        <time>2020-02-17T20:14:13.132Z</time>
      </trkpt>
      <trkpt lat="48.53774" lon="4.61226">
        <ele>131</ele>
        <time>2020-02-17T20:14:14.132Z</time>
      </trkpt>
      <trkpt lat="48.53899" lon="4.61147">
        <ele>132</ele>
        <time>2020-02-17T20:14:15.132Z</time>
      </trkpt>
      <trkpt lat="48.53972" lon="4.61108">
        <ele>132</ele>
        <time>2020-02-17T20:14:16.132Z</time>
      </trkpt>
      <trkpt lat="48.54025" lon="4.61058">
        <ele>132</ele>
        <time>2020-02-17T20:14:17.132Z</time>
      </trkpt>
      <trkpt lat="48.54056" lon="4.61003">
        <ele>133</ele>
        <time>2020-02-17T20:14:18.132Z</time>
      </trkpt>
      <trkpt lat="48.54101" lon="4.60907">
        <ele>133</ele>
        <time>2020-02-17T20:14:19.132Z</time>
      </trkpt>
      <trkpt lat="48.54123" lon="4.60838">
        <ele>133</ele>
        <time>2020-02-17T20:14:20.132Z</time>
      </trkpt>
      <trkpt lat="48.54135" lon="4.60753">
        <ele>134</ele>
        <time>2020-02-17T20:14:21.132Z</time>
      </trkpt>
      <trkpt lat="48.54144" lon="4.60631">
        <ele>134</ele>
        <time>2020-02-17T20:14:22.132Z</time>
      </trkpt>
      <trkpt lat="48.5416" lon="4.6052">
        <ele>135</ele>
        <time>2020-02-17T20:14:23.132Z</time>
      </trkpt>
      <trkpt lat="48.54197" lon="4.60393">
        <ele>136</ele>
        <time>2020-02-17T20:14:24.132Z</time>
      </trkpt>
      <trkpt lat="48.54239" lon="4.60285">
        <ele>137</ele>
        <time>2020-02-17T20:14:25.132Z</time>
      </trkpt>
      <trkpt lat="48.5428" lon="4.60226">
        <ele>137</ele>
        <time>2020-02-17T20:14:26.132Z</time>
      </trkpt>
      <trkpt lat="48.5433" lon="4.60165">
        <ele>135</ele>
        <time>2020-02-17T20:14:27.132Z</time>
      </trkpt>
      <trkpt lat="48.54324" lon="4.60133">
        <ele>135</ele>
        <time>2020-02-17T20:14:28.132Z</time>
      </trkpt>
      <trkpt lat="48.54303" lon="4.6">
        <ele>135</ele>
        <time>2020-02-17T20:14:29.132Z</time>
      </trkpt>
      <trkpt lat="48.54289" lon="4.59886">
        <ele>133</ele>
        <time>2020-02-17T20:14:30.132Z</time>
      </trkpt>
      <trkpt lat="48.5427" lon="4.59824">
        <ele>133</ele>
        <time>2020-02-17T20:14:31.132Z</time>
      </trkpt>
      <trkpt lat="48.54238" lon="4.59758">
        <ele>135</ele>
        <time>2020-02-17T20:14:32.132Z</time>
      </trkpt>
      <trkpt lat="48.54188" lon="4.59651">
        <ele>135</ele>
        <time>2020-02-17T20:14:33.132Z</time>
      </trkpt>
      <trkpt lat="48.541" lon="4.59437">
        <ele>133</ele>
        <time>2020-02-17T20:14:34.132Z</time>
      </trkpt>
      <trkpt lat="48.54093" lon="4.5941">
        <ele>132</ele>
        <time>2020-02-17T20:14:35.132Z</time>
      </trkpt>
      <trkpt lat="48.54083" lon="4.59328">
        <ele>132</ele>
        <time>2020-02-17T20:14:36.132Z</time>
      </trkpt>
      <trkpt lat="48.54074" lon="4.59103">
        <ele>132</ele>
        <time>2020-02-17T20:14:37.132Z</time>
      </trkpt>
      <trkpt lat="48.54078" lon="4.58751">
        <ele>129</ele>
        <time>2020-02-17T20:14:38.132Z</time>
      </trkpt>
      <trkpt lat="48.5414" lon="4.58755">
        <ele>125</ele>
        <time>2020-02-17T20:14:39.132Z</time>
      </trkpt>
      <trkpt lat="48.54182" lon="4.58733">
        <ele>127</ele>
        <time>2020-02-17T20:14:40.132Z</time>
      </trkpt>
      <trkpt lat="48.54219" lon="4.58687">
        <ele>126</ele>
        <time>2020-02-17T20:14:41.132Z</time>
      </trkpt>
      <trkpt lat="48.54246" lon="4.58646">
        <ele>126</ele>
        <time>2020-02-17T20:14:42.132Z</time>
      </trkpt>
      <trkpt lat="48.54265" lon="4.5864">
        <ele>125</ele>
        <time>2020-02-17T20:14:43.132Z</time>
      </trkpt>
      <trkpt lat="48.54315" lon="4.58661">
        <ele>124</ele>
        <time>2020-02-17T20:14:44.132Z</time>
      </trkpt>
      <trkpt lat="48.54425" lon="4.58706">
        <ele>124</ele>
        <time>2020-02-17T20:14:45.132Z</time>
      </trkpt>
      <trkpt lat="48.54513" lon="4.58742">
        <ele>124</ele>
        <time>2020-02-17T20:14:46.132Z</time>
      </trkpt>
      <trkpt lat="48.54546" lon="4.58746">
        <ele>124</ele>
        <time>2020-02-17T20:14:47.132Z</time>
      </trkpt>
      <trkpt lat="48.54583" lon="4.58722">
        <ele>122</ele>
        <time>2020-02-17T20:14:48.132Z</time>
      </trkpt>
      <trkpt lat="48.54609" lon="4.58691">
        <ele>122</ele>
        <time>2020-02-17T20:14:49.132Z</time>
      </trkpt>
      <trkpt lat="48.5463" lon="4.58653">
        <ele>121</ele>
        <time>2020-02-17T20:14:50.132Z</time>
      </trkpt>
      <trkpt lat="48.54649" lon="4.58626">
        <ele>121</ele>
        <time>2020-02-17T20:14:51.132Z</time>
      </trkpt>
      <trkpt lat="48.54693" lon="4.58591">
        <ele>122</ele>
        <time>2020-02-17T20:14:52.132Z</time>
      </trkpt>
      <trkpt lat="48.54797" lon="4.58528">
        <ele>122</ele>
        <time>2020-02-17T20:14:53.132Z</time>
      </trkpt>
      <trkpt lat="48.54824" lon="4.58492">
        <ele>124</ele>
        <time>2020-02-17T20:14:54.132Z</time>
      </trkpt>
      <trkpt lat="48.54845" lon="4.58433">
        <ele>125</ele>
        <time>2020-02-17T20:14:55.132Z</time>
      </trkpt>
      <trkpt lat="48.54886" lon="4.58345">
        <ele>125</ele>
        <time>2020-02-17T20:14:56.132Z</time>
      </trkpt>
      <trkpt lat="48.54904" lon="4.58272">
        <ele>123</ele>
        <time>2020-02-17T20:14:57.132Z</time>
      </trkpt>
      <trkpt lat="48.54906" lon="4.58211">
        <ele>121</ele>
        <time>2020-02-17T20:14:58.132Z</time>
      </trkpt>
      <trkpt lat="48.54905" lon="4.5814">
        <ele>120</ele>
        <time>2020-02-17T20:14:59.132Z</time>
      </trkpt>
      <trkpt lat="48.54911" lon="4.58084">
        <ele>121</ele>
        <time>2020-02-17T20:15:00.132Z</time>
      </trkpt>
      <trkpt lat="48.54928" lon="4.58024">
        <ele>122</ele>
        <time>2020-02-17T20:15:01.132Z</time>
      </trkpt>
      <trkpt lat="48.5496" lon="4.57934">
        <ele>122</ele>
        <time>2020-02-17T20:15:02.132Z</time>
      </trkpt>
      <trkpt lat="48.54885" lon="4.57944">
        <ele>121</ele>
        <time>2020-02-17T20:15:03.132Z</time>
      </trkpt>
      <trkpt lat="48.54638" lon="4.57972">
        <ele>123</ele>
        <time>2020-02-17T20:15:04.132Z</time>
      </trkpt>
      <trkpt lat="48.5436" lon="4.58001">
        <ele>123</ele>
        <time>2020-02-17T20:15:05.132Z</time>
      </trkpt>
      <trkpt lat="48.54221" lon="4.58014">
        <ele>124</ele>
        <time>2020-02-17T20:15:06.132Z</time>
      </trkpt>
      <trkpt lat="48.54195" lon="4.58016">
        <ele>124</ele>
        <time>2020-02-17T20:15:07.132Z</time>
      </trkpt>
      <trkpt lat="48.54137" lon="4.58037">
        <ele>124</ele>
        <time>2020-02-17T20:15:08.132Z</time>
      </trkpt>
      <trkpt lat="48.54114" lon="4.5804">
        <ele>124</ele>
        <time>2020-02-17T20:15:09.132Z</time>
      </trkpt>
      <trkpt lat="48.54074" lon="4.5804">
        <ele>125</ele>
        <time>2020-02-17T20:15:10.132Z</time>
      </trkpt>
      <trkpt lat="48.5407" lon="4.57995">
        <ele>125</ele>
        <time>2020-02-17T20:15:11.132Z</time>
      </trkpt>
      <trkpt lat="48.54067" lon="4.57702">
        <ele>126</ele>
        <time>2020-02-17T20:15:12.132Z</time>
      </trkpt>
      <trkpt lat="48.54065" lon="4.57479">
        <ele>127</ele>
        <time>2020-02-17T20:15:13.132Z</time>
      </trkpt>
      <trkpt lat="48.54057" lon="4.57419">
        <ele>126</ele>
        <time>2020-02-17T20:15:14.132Z</time>
      </trkpt>
      <trkpt lat="48.54037" lon="4.57339">
        <ele>124</ele>
        <time>2020-02-17T20:15:15.132Z</time>
      </trkpt>
      <trkpt lat="48.54019" lon="4.57265">
        <ele>122</ele>
        <time>2020-02-17T20:15:16.132Z</time>
      </trkpt>
      <trkpt lat="48.53988" lon="4.57201">
        <ele>120</ele>
        <time>2020-02-17T20:15:17.132Z</time>
      </trkpt>
      <trkpt lat="48.53948" lon="4.5711">
        <ele>122</ele>
        <time>2020-02-17T20:15:18.132Z</time>
      </trkpt>
      <trkpt lat="48.53872" lon="4.56969">
        <ele>123</ele>
        <time>2020-02-17T20:15:19.132Z</time>
      </trkpt>
      <trkpt lat="48.53791" lon="4.56807">
        <ele>124</ele>
        <time>2020-02-17T20:15:20.132Z</time>
      </trkpt>
      <trkpt lat="48.53752" lon="4.56756">
        <ele>125</ele>
        <time>2020-02-17T20:15:21.132Z</time>
      </trkpt>
      <trkpt lat="48.53709" lon="4.56727">
        <ele>125</ele>
        <time>2020-02-17T20:15:22.132Z</time>
      </trkpt>
      <trkpt lat="48.53638" lon="4.56675">
        <ele>124</ele>
        <time>2020-02-17T20:15:23.132Z</time>
      </trkpt>
      <trkpt lat="48.53479" lon="4.56572">
        <ele>123</ele>
        <time>2020-02-17T20:15:24.132Z</time>
      </trkpt>
      <trkpt lat="48.53277" lon="4.56431">
        <ele>124</ele>
        <time>2020-02-17T20:15:25.132Z</time>
      </trkpt>
      <trkpt lat="48.53238" lon="4.56473">
        <ele>123</ele>
        <time>2020-02-17T20:15:26.132Z</time>
      </trkpt>
      <trkpt lat="48.53061" lon="4.56772">
        <ele>130</ele>
        <time>2020-02-17T20:15:27.132Z</time>
      </trkpt>
      <trkpt lat="48.53004" lon="4.5689">
        <ele>134</ele>
        <time>2020-02-17T20:15:28.132Z</time>
      </trkpt>
      <trkpt lat="48.52996" lon="4.56925">
        <ele>135</ele>
        <time>2020-02-17T20:15:29.132Z</time>
      </trkpt>
      <trkpt lat="48.52928" lon="4.56998">
        <ele>141</ele>
        <time>2020-02-17T20:15:30.132Z</time>
      </trkpt>
      <trkpt lat="48.5283" lon="4.56981">
        <ele>143</ele>
        <time>2020-02-17T20:15:31.132Z</time>
      </trkpt>
      <trkpt lat="48.52787" lon="4.5696">
        <ele>143</ele>
        <time>2020-02-17T20:15:32.132Z</time>
      </trkpt>
      <trkpt lat="48.52716" lon="4.56818">
        <ele>136</ele>
        <time>2020-02-17T20:15:33.132Z</time>
      </trkpt>
      <trkpt lat="48.52602" lon="4.566">
        <ele>139</ele>
        <time>2020-02-17T20:15:34.132Z</time>
      </trkpt>
      <trkpt lat="48.52566" lon="4.56619">
        <ele>140</ele>
        <time>2020-02-17T20:15:35.132Z</time>
      </trkpt>
      <trkpt lat="48.52481" lon="4.56676">
        <ele>146</ele>
        <time>2020-02-17T20:15:36.132Z</time>
      </trkpt>
      <trkpt lat="48.52407" lon="4.5671">
        <ele>157</ele>
        <time>2020-02-17T20:15:37.132Z</time>
      </trkpt>
      <trkpt lat="48.52368" lon="4.56741">
        <ele>161</ele>
        <time>2020-02-17T20:15:38.132Z</time>
      </trkpt>
      <trkpt lat="48.52289" lon="4.56836">
        <ele>169</ele>
        <time>2020-02-17T20:15:39.132Z</time>
      </trkpt>
      <trkpt lat="48.52229" lon="4.56892">
        <ele>175</ele>
        <time>2020-02-17T20:15:40.132Z</time>
      </trkpt>
      <trkpt lat="48.52185" lon="4.56918">
        <ele>175</ele>
        <time>2020-02-17T20:15:41.132Z</time>
      </trkpt>
      <trkpt lat="48.52036" lon="4.56952">
        <ele>175</ele>
        <time>2020-02-17T20:15:42.132Z</time>
      </trkpt>
      <trkpt lat="48.51976" lon="4.56963">
        <ele>175</ele>
        <time>2020-02-17T20:15:43.132Z</time>
      </trkpt>
      <trkpt lat="48.5194" lon="4.56973">
        <ele>175</ele>
        <time>2020-02-17T20:15:44.132Z</time>
      </trkpt>
      <trkpt lat="48.51854" lon="4.5701">
        <ele>171</ele>
        <time>2020-02-17T20:15:45.132Z</time>
      </trkpt>
      <trkpt lat="48.51783" lon="4.57048">
        <ele>166</ele>
        <time>2020-02-17T20:15:46.132Z</time>
      </trkpt>
      <trkpt lat="48.51752" lon="4.57023">
        <ele>165</ele>
        <time>2020-02-17T20:15:47.132Z</time>
      </trkpt>
      <trkpt lat="48.5165" lon="4.5691">
        <ele>162</ele>
        <time>2020-02-17T20:15:48.132Z</time>
      </trkpt>
      <trkpt lat="48.51559" lon="4.56818">
        <ele>159</ele>
        <time>2020-02-17T20:15:49.132Z</time>
      </trkpt>
      <trkpt lat="48.51496" lon="4.5679">
        <ele>158</ele>
        <time>2020-02-17T20:15:50.132Z</time>
      </trkpt>
      <trkpt lat="48.5132" lon="4.56705">
        <ele>156</ele>
        <time>2020-02-17T20:15:51.132Z</time>
      </trkpt>
      <trkpt lat="48.51189" lon="4.56638">
        <ele>157</ele>
        <time>2020-02-17T20:15:52.132Z</time>
      </trkpt>
      <trkpt lat="48.51153" lon="4.5663">
        <ele>157</ele>
        <time>2020-02-17T20:15:53.132Z</time>
      </trkpt>
      <trkpt lat="48.5106" lon="4.56633">
        <ele>158</ele>
        <time>2020-02-17T20:15:54.132Z</time>
      </trkpt>
      <trkpt lat="48.50976" lon="4.56636">
        <ele>156</ele>
        <time>2020-02-17T20:15:55.132Z</time>
      </trkpt>
      <trkpt lat="48.50964" lon="4.56691">
        <ele>155</ele>
        <time>2020-02-17T20:15:56.132Z</time>
      </trkpt>
      <trkpt lat="48.50936" lon="4.56834">
        <ele>152</ele>
        <time>2020-02-17T20:15:57.132Z</time>
      </trkpt>
      <trkpt lat="48.50941" lon="4.56925">
        <ele>148</ele>
        <time>2020-02-17T20:15:58.132Z</time>
      </trkpt>
      <trkpt lat="48.50935" lon="4.56986">
        <ele>144</ele>
        <time>2020-02-17T20:15:59.132Z</time>
      </trkpt>
      <trkpt lat="48.50924" lon="4.57036">
        <ele>142</ele>
        <time>2020-02-17T20:16:00.132Z</time>
      </trkpt>
      <trkpt lat="48.50906" lon="4.57095">
        <ele>141</ele>
        <time>2020-02-17T20:16:01.132Z</time>
      </trkpt>
      <trkpt lat="48.50903" lon="4.57117">
        <ele>141</ele>
        <time>2020-02-17T20:16:02.132Z</time>
      </trkpt>
      <trkpt lat="48.50909" lon="4.57293">
        <ele>134</ele>
        <time>2020-02-17T20:16:03.132Z</time>
      </trkpt>
      <trkpt lat="48.50842" lon="4.57329">
        <ele>135</ele>
        <time>2020-02-17T20:16:04.132Z</time>
      </trkpt>
    </trkseg>
  </trk>
</gpx>